sensor_id;sensor_type;location;lat;lon;timestamp;P1;durP1;ratioP1;P2;durP2;ratioP2
6463;SDS011;3265;42.694;23.282;2023-04-25T00:02:03;4.93;;;3.50;;
6463;SDS011;3265;42.694;23.282;2023-04-25T00:04:32;5.80;;;3.33;;
6463;SDS011;3265;42.694;23.282;2023-04-25T00:06:59;8.17;;;3.87;;
6463;SDS011;3265;42.694;23.282;2023-04-25T00:09:28;6.87;;;3.80;;
6463;SDS011;3265;42.694;23.282;2023-04-25T00:11:54;6.73;;;4.00;;
6463;SDS011;3265;42.694;23.282;2023-04-25T00:14:21;8.87;;;4.13;;
6463;SDS011;3265;42.694;23.282;2023-04-25T00:16:48;6.07;;;4.00;;
6463;SDS011;3265;42.694;23.282;2023-04-25T00:19:18;7.97;;;3.97;;
6463;SDS011;3265;42.694;23.282;2023-04-25T00:21:45;7.43;;;4.00;;
6463;SDS011;3265;42.694;23.282;2023-04-25T00:24:11;7.00;;;4.10;;
6463;SDS011;3265;42.694;23.282;2023-04-25T00:26:38;9.80;;;5.07;;
6463;SDS011;3265;42.694;23.282;2023-04-25T00:29:05;8.33;;;4.70;;
6463;SDS011;3265;42.694;23.282;2023-04-25T00:31:32;9.07;;;4.53;;
6463;SDS011;3265;42.694;23.282;2023-04-25T00:33:58;5.70;;;4.20;;
6463;SDS011;3265;42.694;23.282;2023-04-25T00:36:27;6.20;;;4.10;;
6463;SDS011;3265;42.694;23.282;2023-04-25T00:38:55;6.90;;;4.50;;
6463;SDS011;3265;42.694;23.282;2023-04-25T00:41:22;5.30;;;4.03;;
6463;SDS011;3265;42.694;23.282;2023-04-25T00:43:50;5.30;;;4.20;;
6463;SDS011;3265;42.694;23.282;2023-04-25T00:46:18;7.03;;;4.47;;
6463;SDS011;3265;42.694;23.282;2023-04-25T00:48:45;7.87;;;4.57;;
6463;SDS011;3265;42.694;23.282;2023-04-25T00:51:13;6.23;;;4.40;;
6463;SDS011;3265;42.694;23.282;2023-04-25T00:53:43;7.63;;;4.30;;
6463;SDS011;3265;42.694;23.282;2023-04-25T00:56:11;5.17;;;4.07;;
6463;SDS011;3265;42.694;23.282;2023-04-25T00:58:38;5.77;;;4.30;;
6463;SDS011;3265;42.694;23.282;2023-04-25T01:01:07;8.57;;;4.57;;
6463;SDS011;3265;42.694;23.282;2023-04-25T01:03:37;7.17;;;5.00;;
6463;SDS011;3265;42.694;23.282;2023-04-25T01:06:06;9.90;;;4.77;;
6463;SDS011;3265;42.694;23.282;2023-04-25T01:08:33;8.83;;;4.50;;
6463;SDS011;3265;42.694;23.282;2023-04-25T01:11:02;7.20;;;4.53;;
6463;SDS011;3265;42.694;23.282;2023-04-25T01:13:29;5.80;;;4.50;;
6463;SDS011;3265;42.694;23.282;2023-04-25T01:15:57;7.73;;;4.57;;
6463;SDS011;3265;42.694;23.282;2023-04-25T01:18:24;10.73;;;4.80;;
6463;SDS011;3265;42.694;23.282;2023-04-25T01:20:51;5.77;;;4.63;;
6463;SDS011;3265;42.694;23.282;2023-04-25T01:23:20;7.43;;;4.80;;
6463;SDS011;3265;42.694;23.282;2023-04-25T01:25:48;7.33;;;5.53;;
6463;SDS011;3265;42.694;23.282;2023-04-25T01:28:16;11.93;;;9.27;;
6463;SDS011;3265;42.694;23.282;2023-04-25T01:30:43;12.53;;;8.80;;
6463;SDS011;3265;42.694;23.282;2023-04-25T01:33:11;8.27;;;6.10;;
6463;SDS011;3265;42.694;23.282;2023-04-25T01:35:40;8.83;;;6.23;;
6463;SDS011;3265;42.694;23.282;2023-04-25T01:38:07;11.33;;;7.20;;
6463;SDS011;3265;42.694;23.282;2023-04-25T01:40:35;9.23;;;6.63;;
6463;SDS011;3265;42.694;23.282;2023-04-25T01:43:06;8.70;;;6.77;;
6463;SDS011;3265;42.694;23.282;2023-04-25T01:45:36;9.13;;;6.20;;
6463;SDS011;3265;42.694;23.282;2023-04-25T01:48:05;9.93;;;7.10;;
6463;SDS011;3265;42.694;23.282;2023-04-25T01:50:32;11.80;;;7.43;;
6463;SDS011;3265;42.694;23.282;2023-04-25T01:52:59;10.67;;;7.77;;
6463;SDS011;3265;42.694;23.282;2023-04-25T01:55:26;12.30;;;7.57;;
6463;SDS011;3265;42.694;23.282;2023-04-25T01:57:55;11.70;;;7.50;;
6463;SDS011;3265;42.694;23.282;2023-04-25T02:00:22;9.13;;;7.13;;
6463;SDS011;3265;42.694;23.282;2023-04-25T02:02:49;12.93;;;7.87;;
6463;SDS011;3265;42.694;23.282;2023-04-25T02:05:16;9.57;;;6.87;;
6463;SDS011;3265;42.694;23.282;2023-04-25T02:07:43;10.57;;;7.47;;
6463;SDS011;3265;42.694;23.282;2023-04-25T02:10:10;10.87;;;6.80;;
6463;SDS011;3265;42.694;23.282;2023-04-25T02:12:37;10.30;;;6.90;;
6463;SDS011;3265;42.694;23.282;2023-04-25T02:15:05;11.50;;;6.63;;
6463;SDS011;3265;42.694;23.282;2023-04-25T02:17:33;8.37;;;6.57;;
6463;SDS011;3265;42.694;23.282;2023-04-25T02:20:00;8.67;;;6.13;;
6463;SDS011;3265;42.694;23.282;2023-04-25T02:22:27;9.67;;;6.87;;
6463;SDS011;3265;42.694;23.282;2023-04-25T02:24:55;10.90;;;7.30;;
6463;SDS011;3265;42.694;23.282;2023-04-25T02:27:22;12.13;;;7.40;;
6463;SDS011;3265;42.694;23.282;2023-04-25T02:29:51;9.90;;;7.17;;
6463;SDS011;3265;42.694;23.282;2023-04-25T02:32:19;10.03;;;7.10;;
6463;SDS011;3265;42.694;23.282;2023-04-25T02:34:45;10.87;;;7.13;;
6463;SDS011;3265;42.694;23.282;2023-04-25T02:37:13;9.23;;;7.17;;
6463;SDS011;3265;42.694;23.282;2023-04-25T02:39:40;12.43;;;7.60;;
6463;SDS011;3265;42.694;23.282;2023-04-25T02:42:06;9.60;;;7.13;;
6463;SDS011;3265;42.694;23.282;2023-04-25T02:44:33;8.73;;;7.13;;
6463;SDS011;3265;42.694;23.282;2023-04-25T02:47:00;8.80;;;7.10;;
6463;SDS011;3265;42.694;23.282;2023-04-25T02:49:28;10.60;;;7.97;;
6463;SDS011;3265;42.694;23.282;2023-04-25T02:51:55;12.50;;;8.07;;
6463;SDS011;3265;42.694;23.282;2023-04-25T02:54:22;13.37;;;8.97;;
6463;SDS011;3265;42.694;23.282;2023-04-25T02:56:49;13.40;;;8.83;;
6463;SDS011;3265;42.694;23.282;2023-04-25T02:59:15;13.10;;;9.10;;
6463;SDS011;3265;42.694;23.282;2023-04-25T03:01:42;16.83;;;9.70;;
6463;SDS011;3265;42.694;23.282;2023-04-25T03:04:09;14.00;;;9.13;;
6463;SDS011;3265;42.694;23.282;2023-04-25T03:06:37;15.17;;;9.10;;
6463;SDS011;3265;42.694;23.282;2023-04-25T03:09:04;13.90;;;9.73;;
6463;SDS011;3265;42.694;23.282;2023-04-25T03:11:31;13.90;;;9.37;;
6463;SDS011;3265;42.694;23.282;2023-04-25T03:13:58;13.60;;;9.23;;
6463;SDS011;3265;42.694;23.282;2023-04-25T03:16:25;11.90;;;8.60;;
6463;SDS011;3265;42.694;23.282;2023-04-25T03:18:51;11.90;;;9.20;;
6463;SDS011;3265;42.694;23.282;2023-04-25T03:21:18;12.13;;;8.17;;
6463;SDS011;3265;42.694;23.282;2023-04-25T03:23:46;13.63;;;8.00;;
6463;SDS011;3265;42.694;23.282;2023-04-25T03:26:13;10.07;;;7.93;;
6463;SDS011;3265;42.694;23.282;2023-04-25T03:28:40;9.63;;;7.57;;
6463;SDS011;3265;42.694;23.282;2023-04-25T03:31:07;9.20;;;7.00;;
6463;SDS011;3265;42.694;23.282;2023-04-25T03:33:34;8.37;;;6.70;;
6463;SDS011;3265;42.694;23.282;2023-04-25T03:36:01;9.23;;;7.33;;
6463;SDS011;3265;42.694;23.282;2023-04-25T03:38:28;9.90;;;7.40;;
6463;SDS011;3265;42.694;23.282;2023-04-25T03:40:56;9.90;;;7.50;;
6463;SDS011;3265;42.694;23.282;2023-04-25T03:43:23;13.03;;;7.77;;
6463;SDS011;3265;42.694;23.282;2023-04-25T03:45:50;9.77;;;7.33;;
6463;SDS011;3265;42.694;23.282;2023-04-25T03:48:17;10.10;;;7.33;;
6463;SDS011;3265;42.694;23.282;2023-04-25T03:50:46;10.53;;;8.00;;
6463;SDS011;3265;42.694;23.282;2023-04-25T03:53:13;9.77;;;7.60;;
6463;SDS011;3265;42.694;23.282;2023-04-25T03:55:40;9.37;;;7.43;;
6463;SDS011;3265;42.694;23.282;2023-04-25T03:58:08;9.40;;;6.67;;
6463;SDS011;3265;42.694;23.282;2023-04-25T04:00:35;9.77;;;7.37;;
6463;SDS011;3265;42.694;23.282;2023-04-25T04:03:03;10.13;;;6.97;;
6463;SDS011;3265;42.694;23.282;2023-04-25T04:05:30;10.30;;;7.30;;
6463;SDS011;3265;42.694;23.282;2023-04-25T04:07:57;10.20;;;7.30;;
6463;SDS011;3265;42.694;23.282;2023-04-25T04:10:24;11.43;;;7.97;;
6463;SDS011;3265;42.694;23.282;2023-04-25T04:12:51;12.30;;;8.80;;
6463;SDS011;3265;42.694;23.282;2023-04-25T04:15:19;12.80;;;9.10;;
6463;SDS011;3265;42.694;23.282;2023-04-25T04:17:47;12.20;;;8.17;;
6463;SDS011;3265;42.694;23.282;2023-04-25T04:20:14;12.93;;;8.77;;
6463;SDS011;3265;42.694;23.282;2023-04-25T04:22:41;11.77;;;8.53;;
6463;SDS011;3265;42.694;23.282;2023-04-25T04:25:08;13.10;;;8.53;;
6463;SDS011;3265;42.694;23.282;2023-04-25T04:27:36;11.63;;;8.13;;
6463;SDS011;3265;42.694;23.282;2023-04-25T04:30:04;10.73;;;8.23;;
6463;SDS011;3265;42.694;23.282;2023-04-25T04:32:33;10.93;;;8.50;;
6463;SDS011;3265;42.694;23.282;2023-04-25T04:35:02;9.77;;;7.70;;
6463;SDS011;3265;42.694;23.282;2023-04-25T04:37:31;12.43;;;8.20;;
6463;SDS011;3265;42.694;23.282;2023-04-25T04:39:58;11.77;;;8.90;;
6463;SDS011;3265;42.694;23.282;2023-04-25T04:42:26;11.37;;;8.43;;
6463;SDS011;3265;42.694;23.282;2023-04-25T04:44:53;11.23;;;8.50;;
6463;SDS011;3265;42.694;23.282;2023-04-25T04:47:20;12.77;;;9.10;;
6463;SDS011;3265;42.694;23.282;2023-04-25T04:49:50;11.90;;;8.60;;
6463;SDS011;3265;42.694;23.282;2023-04-25T04:52:19;10.00;;;7.93;;
6463;SDS011;3265;42.694;23.282;2023-04-25T04:54:46;11.20;;;8.90;;
6463;SDS011;3265;42.694;23.282;2023-04-25T04:57:13;12.40;;;9.47;;
6463;SDS011;3265;42.694;23.282;2023-04-25T04:59:41;12.27;;;9.47;;
6463;SDS011;3265;42.694;23.282;2023-04-25T05:02:08;15.13;;;10.13;;
6463;SDS011;3265;42.694;23.282;2023-04-25T05:04:35;15.23;;;10.40;;
6463;SDS011;3265;42.694;23.282;2023-04-25T05:07:03;14.27;;;10.37;;
6463;SDS011;3265;42.694;23.282;2023-04-25T05:09:30;13.47;;;10.27;;
6463;SDS011;3265;42.694;23.282;2023-04-25T05:11:57;16.33;;;10.20;;
6463;SDS011;3265;42.694;23.282;2023-04-25T05:14:24;14.97;;;9.83;;
6463;SDS011;3265;42.694;23.282;2023-04-25T05:16:50;14.13;;;10.43;;
6463;SDS011;3265;42.694;23.282;2023-04-25T05:19:17;14.60;;;10.53;;
6463;SDS011;3265;42.694;23.282;2023-04-25T05:21:44;17.53;;;11.57;;
6463;SDS011;3265;42.694;23.282;2023-04-25T05:24:20;15.50;;;10.33;;
6463;SDS011;3265;42.694;23.282;2023-04-25T05:26:47;16.00;;;10.77;;
6463;SDS011;3265;42.694;23.282;2023-04-25T05:29:14;15.40;;;10.30;;
6463;SDS011;3265;42.694;23.282;2023-04-25T05:31:41;13.27;;;9.43;;
6463;SDS011;3265;42.694;23.282;2023-04-25T05:34:07;13.03;;;9.37;;
6463;SDS011;3265;42.694;23.282;2023-04-25T05:36:34;13.03;;;9.33;;
6463;SDS011;3265;42.694;23.282;2023-04-25T05:39:01;11.27;;;8.67;;
6463;SDS011;3265;42.694;23.282;2023-04-25T05:41:30;10.90;;;8.57;;
6463;SDS011;3265;42.694;23.282;2023-04-25T05:43:57;11.23;;;8.93;;
6463;SDS011;3265;42.694;23.282;2023-04-25T05:46:24;14.30;;;8.53;;
6463;SDS011;3265;42.694;23.282;2023-04-25T05:48:51;12.13;;;8.40;;
6463;SDS011;3265;42.694;23.282;2023-04-25T05:51:18;11.57;;;7.90;;
6463;SDS011;3265;42.694;23.282;2023-04-25T05:53:44;10.40;;;7.63;;
6463;SDS011;3265;42.694;23.282;2023-04-25T05:56:11;10.23;;;7.90;;
6463;SDS011;3265;42.694;23.282;2023-04-25T05:58:41;14.63;;;7.97;;
6463;SDS011;3265;42.694;23.282;2023-04-25T06:01:08;11.80;;;8.10;;
6463;SDS011;3265;42.694;23.282;2023-04-25T06:03:35;14.70;;;8.83;;
6463;SDS011;3265;42.694;23.282;2023-04-25T06:06:03;12.23;;;7.77;;
6463;SDS011;3265;42.694;23.282;2023-04-25T06:08:30;15.63;;;8.83;;
6463;SDS011;3265;42.694;23.282;2023-04-25T06:10:57;14.57;;;8.67;;
6463;SDS011;3265;42.694;23.282;2023-04-25T06:13:24;10.37;;;8.53;;
6463;SDS011;3265;42.694;23.282;2023-04-25T06:15:52;13.43;;;9.90;;
6463;SDS011;3265;42.694;23.282;2023-04-25T06:18:19;19.00;;;10.93;;
6463;SDS011;3265;42.694;23.282;2023-04-25T06:20:46;17.83;;;11.70;;
6463;SDS011;3265;42.694;23.282;2023-04-25T06:23:16;16.83;;;12.20;;
6463;SDS011;3265;42.694;23.282;2023-04-25T06:25:43;17.13;;;12.20;;
6463;SDS011;3265;42.694;23.282;2023-04-25T06:28:12;14.40;;;10.87;;
6463;SDS011;3265;42.694;23.282;2023-04-25T06:30:39;18.50;;;12.07;;
6463;SDS011;3265;42.694;23.282;2023-04-25T06:33:08;19.33;;;11.83;;
6463;SDS011;3265;42.694;23.282;2023-04-25T06:35:34;17.73;;;11.53;;
6463;SDS011;3265;42.694;23.282;2023-04-25T06:38:01;19.00;;;12.63;;
6463;SDS011;3265;42.694;23.282;2023-04-25T06:40:28;18.73;;;12.10;;
6463;SDS011;3265;42.694;23.282;2023-04-25T06:42:55;20.90;;;12.47;;
6463;SDS011;3265;42.694;23.282;2023-04-25T06:45:22;18.90;;;13.03;;
6463;SDS011;3265;42.694;23.282;2023-04-25T06:47:48;20.50;;;11.73;;
6463;SDS011;3265;42.694;23.282;2023-04-25T06:50:17;16.80;;;11.13;;
6463;SDS011;3265;42.694;23.282;2023-04-25T06:52:43;15.20;;;10.67;;
6463;SDS011;3265;42.694;23.282;2023-04-25T06:55:10;19.43;;;10.97;;
6463;SDS011;3265;42.694;23.282;2023-04-25T06:57:37;18.80;;;10.30;;
6463;SDS011;3265;42.694;23.282;2023-04-25T07:00:04;15.47;;;9.97;;
6463;SDS011;3265;42.694;23.282;2023-04-25T07:02:34;13.00;;;9.20;;
6463;SDS011;3265;42.694;23.282;2023-04-25T07:05:01;14.90;;;9.20;;
6463;SDS011;3265;42.694;23.282;2023-04-25T07:07:30;15.13;;;9.83;;
6463;SDS011;3265;42.694;23.282;2023-04-25T07:09:57;15.63;;;9.23;;
6463;SDS011;3265;42.694;23.282;2023-04-25T07:12:24;15.90;;;9.70;;
6463;SDS011;3265;42.694;23.282;2023-04-25T07:14:51;15.87;;;9.60;;
6463;SDS011;3265;42.694;23.282;2023-04-25T07:17:17;13.17;;;9.33;;
6463;SDS011;3265;42.694;23.282;2023-04-25T07:19:44;14.27;;;9.37;;
6463;SDS011;3265;42.694;23.282;2023-04-25T07:22:11;13.93;;;9.77;;
6463;SDS011;3265;42.694;23.282;2023-04-25T07:24:39;13.67;;;9.20;;
6463;SDS011;3265;42.694;23.282;2023-04-25T07:27:06;13.63;;;9.27;;
6463;SDS011;3265;42.694;23.282;2023-04-25T07:29:33;14.37;;;9.67;;
6463;SDS011;3265;42.694;23.282;2023-04-25T07:32:02;16.07;;;9.57;;
6463;SDS011;3265;42.694;23.282;2023-04-25T07:34:29;18.30;;;10.73;;
6463;SDS011;3265;42.694;23.282;2023-04-25T07:36:57;22.27;;;10.07;;
6463;SDS011;3265;42.694;23.282;2023-04-25T07:39:25;21.13;;;10.17;;
6463;SDS011;3265;42.694;23.282;2023-04-25T07:41:53;16.83;;;9.37;;
6463;SDS011;3265;42.694;23.282;2023-04-25T07:44:21;22.73;;;9.93;;
6463;SDS011;3265;42.694;23.282;2023-04-25T07:46:48;18.07;;;10.00;;
6463;SDS011;3265;42.694;23.282;2023-04-25T07:49:14;16.50;;;10.60;;
6463;SDS011;3265;42.694;23.282;2023-04-25T07:51:41;17.53;;;10.77;;
6463;SDS011;3265;42.694;23.282;2023-04-25T07:54:09;15.57;;;10.53;;
6463;SDS011;3265;42.694;23.282;2023-04-25T07:56:39;20.37;;;9.97;;
6463;SDS011;3265;42.694;23.282;2023-04-25T07:59:07;20.20;;;10.50;;
6463;SDS011;3265;42.694;23.282;2023-04-25T08:01:34;17.77;;;10.57;;
6463;SDS011;3265;42.694;23.282;2023-04-25T08:04:01;26.97;;;9.67;;
6463;SDS011;3265;42.694;23.282;2023-04-25T08:06:28;16.20;;;11.20;;
6463;SDS011;3265;42.694;23.282;2023-04-25T08:08:55;16.80;;;9.77;;
6463;SDS011;3265;42.694;23.282;2023-04-25T08:11:21;14.20;;;10.00;;
6463;SDS011;3265;42.694;23.282;2023-04-25T08:13:48;21.83;;;10.80;;
6463;SDS011;3265;42.694;23.282;2023-04-25T08:16:16;18.83;;;10.80;;
6463;SDS011;3265;42.694;23.282;2023-04-25T08:18:43;17.63;;;10.80;;
6463;SDS011;3265;42.694;23.282;2023-04-25T08:21:10;20.60;;;10.23;;
6463;SDS011;3265;42.694;23.282;2023-04-25T08:23:37;13.83;;;9.57;;
6463;SDS011;3265;42.694;23.282;2023-04-25T08:26:04;14.57;;;8.97;;
6463;SDS011;3265;42.694;23.282;2023-04-25T08:28:31;12.10;;;7.40;;
6463;SDS011;3265;42.694;23.282;2023-04-25T08:33:46;7.07;;;3.90;;
6463;SDS011;3265;42.694;23.282;2023-04-25T08:36:19;9.13;;;4.10;;
6463;SDS011;3265;42.694;23.282;2023-04-25T08:38:47;11.57;;;6.17;;
6463;SDS011;3265;42.694;23.282;2023-04-25T08:41:15;11.90;;;7.27;;
6463;SDS011;3265;42.694;23.282;2023-04-25T08:43:49;11.90;;;7.27;;
6463;SDS011;3265;42.694;23.282;2023-04-25T08:46:24;12.00;;;7.17;;
6463;SDS011;3265;42.694;23.282;2023-04-25T08:49:02;9.77;;;5.67;;
6463;SDS011;3265;42.694;23.282;2023-04-25T08:51:40;7.33;;;5.20;;
6463;SDS011;3265;42.694;23.282;2023-04-25T08:54:25;10.50;;;4.13;;
6463;SDS011;3265;42.694;23.282;2023-04-25T08:56:56;6.50;;;3.60;;
6463;SDS011;3265;42.694;23.282;2023-04-25T08:59:26;5.37;;;3.67;;
6463;SDS011;3265;42.694;23.282;2023-04-25T09:01:56;5.83;;;3.80;;
6463;SDS011;3265;42.694;23.282;2023-04-25T09:04:23;6.90;;;3.90;;
6463;SDS011;3265;42.694;23.282;2023-04-25T09:06:50;7.53;;;4.27;;
6463;SDS011;3265;42.694;23.282;2023-04-25T09:09:17;6.23;;;3.60;;
6463;SDS011;3265;42.694;23.282;2023-04-25T09:11:44;5.70;;;4.10;;
6463;SDS011;3265;42.694;23.282;2023-04-25T09:14:11;11.73;;;4.97;;
6463;SDS011;3265;42.694;23.282;2023-04-25T09:17:00;10.40;;;4.83;;
6463;SDS011;3265;42.694;23.282;2023-04-25T09:19:28;6.90;;;5.07;;
6463;SDS011;3265;42.694;23.282;2023-04-25T09:21:57;7.93;;;4.97;;
6463;SDS011;3265;42.694;23.282;2023-04-25T09:24:35;6.17;;;4.53;;
6463;SDS011;3265;42.694;23.282;2023-04-25T09:27:03;9.60;;;4.70;;
6463;SDS011;3265;42.694;23.282;2023-04-25T09:29:31;6.27;;;4.00;;
6463;SDS011;3265;42.694;23.282;2023-04-25T09:32:12;8.00;;;4.53;;
6463;SDS011;3265;42.694;23.282;2023-04-25T09:34:43;6.07;;;3.03;;
6463;SDS011;3265;42.694;23.282;2023-04-25T09:37:16;4.17;;;2.80;;
6463;SDS011;3265;42.694;23.282;2023-04-25T09:39:44;3.73;;;2.83;;
6463;SDS011;3265;42.694;23.282;2023-04-25T09:42:12;2.00;;;1.80;;
6463;SDS011;3265;42.694;23.282;2023-04-25T09:44:41;2.07;;;1.77;;
6463;SDS011;3265;42.694;23.282;2023-04-25T09:47:10;8.07;;;3.77;;
6463;SDS011;3265;42.694;23.282;2023-04-25T09:49:40;6.53;;;4.30;;
6463;SDS011;3265;42.694;23.282;2023-04-25T09:52:08;7.70;;;3.80;;
6463;SDS011;3265;42.694;23.282;2023-04-25T09:54:39;4.87;;;3.37;;
6463;SDS011;3265;42.694;23.282;2023-04-25T09:57:09;10.70;;;3.77;;
6463;SDS011;3265;42.694;23.282;2023-04-25T09:59:38;5.80;;;3.90;;
6463;SDS011;3265;42.694;23.282;2023-04-25T10:02:08;6.07;;;2.93;;
6463;SDS011;3265;42.694;23.282;2023-04-25T10:04:38;3.30;;;3.00;;
6463;SDS011;3265;42.694;23.282;2023-04-25T10:07:05;3.15;;;2.50;;
6463;SDS011;3265;42.694;23.282;2023-04-25T10:09:33;5.43;;;2.72;;
6463;SDS011;3265;42.694;23.282;2023-04-25T10:12:04;6.70;;;2.85;;
6463;SDS011;3265;42.694;23.282;2023-04-25T10:14:32;7.30;;;2.75;;
6463;SDS011;3265;42.694;23.282;2023-04-25T10:16:59;3.70;;;1.90;;
6463;SDS011;3265;42.694;23.282;2023-04-25T10:19:27;2.30;;;1.80;;
6463;SDS011;3265;42.694;23.282;2023-04-25T10:21:58;3.43;;;1.20;;
6463;SDS011;3265;42.694;23.282;2023-04-25T10:24:30;3.93;;;2.30;;
6463;SDS011;3265;42.694;23.282;2023-04-25T10:26:57;5.00;;;2.90;;
6463;SDS011;3265;42.694;23.282;2023-04-25T10:29:25;4.07;;;2.50;;
6463;SDS011;3265;42.694;23.282;2023-04-25T10:31:52;2.90;;;1.60;;
6463;SDS011;3265;42.694;23.282;2023-04-25T10:34:23;2.40;;;1.60;;
6463;SDS011;3265;42.694;23.282;2023-04-25T10:36:51;3.40;;;1.80;;
6463;SDS011;3265;42.694;23.282;2023-04-25T10:39:24;3.87;;;1.90;;
6463;SDS011;3265;42.694;23.282;2023-04-25T10:41:53;1.60;;;1.50;;
6463;SDS011;3265;42.694;23.282;2023-04-25T10:44:23;3.40;;;1.80;;
6463;SDS011;3265;42.694;23.282;2023-04-25T10:46:54;2.57;;;1.53;;
6463;SDS011;3265;42.694;23.282;2023-04-25T10:49:29;3.67;;;1.60;;
6463;SDS011;3265;42.694;23.282;2023-04-25T10:52:18;4.67;;;3.23;;
6463;SDS011;3265;42.694;23.282;2023-04-25T10:54:53;5.00;;;2.90;;
6463;SDS011;3265;42.694;23.282;2023-04-25T11:00:12;2.13;;;1.80;;
6463;SDS011;3265;42.694;23.282;2023-04-25T11:02:41;2.38;;;1.30;;
6463;SDS011;3265;42.694;23.282;2023-04-25T11:05:10;2.55;;;1.38;;
6463;SDS011;3265;42.694;23.282;2023-04-25T11:07:44;4.07;;;1.98;;
6463;SDS011;3265;42.694;23.282;2023-04-25T11:10:19;1.80;;;1.30;;
6463;SDS011;3265;42.694;23.282;2023-04-25T11:12:46;5.25;;;1.20;;
6463;SDS011;3265;42.694;23.282;2023-04-25T11:15:13;1.42;;;1.30;;
6463;SDS011;3265;42.694;23.282;2023-04-25T11:17:40;2.65;;;1.42;;
6463;SDS011;3265;42.694;23.282;2023-04-25T11:20:08;2.13;;;1.38;;
6463;SDS011;3265;42.694;23.282;2023-04-25T11:22:37;2.28;;;1.33;;
6463;SDS011;3265;42.694;23.282;2023-04-25T11:25:06;4.53;;;1.60;;
6463;SDS011;3265;42.694;23.282;2023-04-25T11:27:36;2.35;;;1.55;;
6463;SDS011;3265;42.694;23.282;2023-04-25T11:30:11;2.92;;;1.50;;
6463;SDS011;3265;42.694;23.282;2023-04-25T11:32:40;1.73;;;1.52;;
6463;SDS011;3265;42.694;23.282;2023-04-25T11:35:08;4.75;;;2.25;;
6463;SDS011;3265;42.694;23.282;2023-04-25T11:37:35;2.63;;;1.83;;
6463;SDS011;3265;42.694;23.282;2023-04-25T11:40:02;1.45;;;1.35;;
6463;SDS011;3265;42.694;23.282;2023-04-25T11:42:31;2.50;;;1.73;;
6463;SDS011;3265;42.694;23.282;2023-04-25T11:45:00;5.40;;;1.97;;
6463;SDS011;3265;42.694;23.282;2023-04-25T11:47:29;2.43;;;2.10;;
6463;SDS011;3265;42.694;23.282;2023-04-25T11:49:57;2.83;;;1.47;;
6463;SDS011;3265;42.694;23.282;2023-04-25T11:52:34;2.27;;;1.60;;
6463;SDS011;3265;42.694;23.282;2023-04-25T11:55:03;1.73;;;1.53;;
6463;SDS011;3265;42.694;23.282;2023-04-25T11:57:32;1.73;;;1.60;;
6463;SDS011;3265;42.694;23.282;2023-04-25T12:00:06;3.20;;;1.80;;
6463;SDS011;3265;42.694;23.282;2023-04-25T12:02:40;2.60;;;1.30;;
6463;SDS011;3265;42.694;23.282;2023-04-25T12:05:07;2.93;;;1.73;;
6463;SDS011;3265;42.694;23.282;2023-04-25T12:07:35;1.60;;;1.50;;
6463;SDS011;3265;42.694;23.282;2023-04-25T12:10:06;2.00;;;1.80;;
6463;SDS011;3265;42.694;23.282;2023-04-25T12:12:34;2.00;;;1.47;;
6463;SDS011;3265;42.694;23.282;2023-04-25T12:15:09;2.10;;;1.90;;
6463;SDS011;3265;42.694;23.282;2023-04-25T12:17:38;1.90;;;1.47;;
6463;SDS011;3265;42.694;23.282;2023-04-25T12:20:06;3.37;;;1.87;;
6463;SDS011;3265;42.694;23.282;2023-04-25T12:22:34;3.27;;;1.70;;
6463;SDS011;3265;42.694;23.282;2023-04-25T12:25:01;2.23;;;1.80;;
6463;SDS011;3265;42.694;23.282;2023-04-25T12:27:30;5.33;;;1.70;;
6463;SDS011;3265;42.694;23.282;2023-04-25T12:29:57;6.03;;;2.00;;
6463;SDS011;3265;42.694;23.282;2023-04-25T12:32:25;7.50;;;2.63;;
6463;SDS011;3265;42.694;23.282;2023-04-25T12:34:54;11.80;;;2.60;;
6463;SDS011;3265;42.694;23.282;2023-04-25T12:37:21;3.80;;;1.60;;
6463;SDS011;3265;42.694;23.282;2023-04-25T12:39:48;5.03;;;1.97;;
6463;SDS011;3265;42.694;23.282;2023-04-25T12:42:22;6.97;;;1.73;;
6463;SDS011;3265;42.694;23.282;2023-04-25T12:44:49;4.43;;;1.80;;
6463;SDS011;3265;42.694;23.282;2023-04-25T12:47:16;5.97;;;2.20;;
6463;SDS011;3265;42.694;23.282;2023-04-25T12:49:44;5.13;;;3.03;;
6463;SDS011;3265;42.694;23.282;2023-04-25T12:52:11;6.57;;;2.70;;
6463;SDS011;3265;42.694;23.282;2023-04-25T12:54:38;4.53;;;2.73;;
6463;SDS011;3265;42.694;23.282;2023-04-25T12:57:05;4.23;;;2.00;;
6463;SDS011;3265;42.694;23.282;2023-04-25T12:59:32;6.17;;;2.70;;
6463;SDS011;3265;42.694;23.282;2023-04-25T13:01:58;5.70;;;3.50;;
6463;SDS011;3265;42.694;23.282;2023-04-25T13:04:25;8.00;;;5.77;;
6463;SDS011;3265;42.694;23.282;2023-04-25T13:06:54;8.20;;;5.47;;
6463;SDS011;3265;42.694;23.282;2023-04-25T13:09:21;9.67;;;6.50;;
6463;SDS011;3265;42.694;23.282;2023-04-25T13:11:58;11.70;;;6.00;;
6463;SDS011;3265;42.694;23.282;2023-04-25T13:14:25;4.47;;;3.20;;
6463;SDS011;3265;42.694;23.282;2023-04-25T13:16:52;7.27;;;3.33;;
6463;SDS011;3265;42.694;23.282;2023-04-25T13:19:19;5.20;;;2.90;;
6463;SDS011;3265;42.694;23.282;2023-04-25T13:21:48;5.70;;;3.10;;
6463;SDS011;3265;42.694;23.282;2023-04-25T13:24:16;4.60;;;2.60;;
6463;SDS011;3265;42.694;23.282;2023-04-25T13:26:43;3.63;;;2.43;;
6463;SDS011;3265;42.694;23.282;2023-04-25T13:29:10;4.63;;;2.83;;
6463;SDS011;3265;42.694;23.282;2023-04-25T13:31:37;4.77;;;3.00;;
6463;SDS011;3265;42.694;23.282;2023-04-25T13:34:04;4.40;;;2.70;;
6463;SDS011;3265;42.694;23.282;2023-04-25T13:36:31;5.17;;;3.00;;
6463;SDS011;3265;42.694;23.282;2023-04-25T13:38:58;8.37;;;3.37;;
6463;SDS011;3265;42.694;23.282;2023-04-25T13:41:27;8.00;;;3.20;;
6463;SDS011;3265;42.694;23.282;2023-04-25T13:43:54;5.07;;;2.63;;
6463;SDS011;3265;42.694;23.282;2023-04-25T13:46:20;5.60;;;2.80;;
6463;SDS011;3265;42.694;23.282;2023-04-25T13:48:47;5.70;;;3.47;;
6463;SDS011;3265;42.694;23.282;2023-04-25T13:51:15;6.87;;;3.67;;
6463;SDS011;3265;42.694;23.282;2023-04-25T13:53:43;6.33;;;4.00;;
6463;SDS011;3265;42.694;23.282;2023-04-25T13:56:10;7.27;;;3.60;;
6463;SDS011;3265;42.694;23.282;2023-04-25T13:58:39;6.10;;;3.10;;
6463;SDS011;3265;42.694;23.282;2023-04-25T14:01:06;6.00;;;3.10;;
6463;SDS011;3265;42.694;23.282;2023-04-25T14:03:33;4.37;;;2.90;;
6463;SDS011;3265;42.694;23.282;2023-04-25T14:06:00;3.27;;;2.57;;
6463;SDS011;3265;42.694;23.282;2023-04-25T14:08:27;3.40;;;2.43;;
6463;SDS011;3265;42.694;23.282;2023-04-25T14:10:54;3.77;;;2.53;;
6463;SDS011;3265;42.694;23.282;2023-04-25T14:13:21;2.60;;;2.23;;
6463;SDS011;3265;42.694;23.282;2023-04-25T14:15:50;4.17;;;2.90;;
6463;SDS011;3265;42.694;23.282;2023-04-25T14:18:17;2.43;;;1.60;;
6463;SDS011;3265;42.694;23.282;2023-04-25T14:20:44;2.63;;;2.00;;
6463;SDS011;3265;42.694;23.282;2023-04-25T14:23:11;3.53;;;2.10;;
6463;SDS011;3265;42.694;23.282;2023-04-25T14:25:37;2.80;;;1.90;;
6463;SDS011;3265;42.694;23.282;2023-04-25T14:28:05;3.43;;;2.10;;
6463;SDS011;3265;42.694;23.282;2023-04-25T14:30:32;2.70;;;2.13;;
6463;SDS011;3265;42.694;23.282;2023-04-25T14:33:00;3.07;;;2.27;;
6463;SDS011;3265;42.694;23.282;2023-04-25T14:35:27;2.20;;;2.00;;
6463;SDS011;3265;42.694;23.282;2023-04-25T14:37:53;5.47;;;2.20;;
6463;SDS011;3265;42.694;23.282;2023-04-25T14:40:20;2.80;;;2.10;;
6463;SDS011;3265;42.694;23.282;2023-04-25T14:42:48;2.50;;;2.13;;
6463;SDS011;3265;42.694;23.282;2023-04-25T14:45:15;4.37;;;2.83;;
6463;SDS011;3265;42.694;23.282;2023-04-25T14:47:41;5.17;;;3.40;;
6463;SDS011;3265;42.694;23.282;2023-04-25T14:50:10;6.77;;;3.40;;
6463;SDS011;3265;42.694;23.282;2023-04-25T14:52:37;6.90;;;3.93;;
6463;SDS011;3265;42.694;23.282;2023-04-25T14:55:04;4.87;;;3.90;;
6463;SDS011;3265;42.694;23.282;2023-04-25T14:57:32;7.87;;;4.20;;
6463;SDS011;3265;42.694;23.282;2023-04-25T14:59:59;5.57;;;3.70;;
6463;SDS011;3265;42.694;23.282;2023-04-25T15:02:27;7.77;;;4.20;;
6463;SDS011;3265;42.694;23.282;2023-04-25T15:04:54;7.30;;;4.00;;